sensor_id;sensor_type;location;lat;lon;timestamp;P1;durP1;ratioP1;P2;durP2;ratioP2
59922;SDS011;45778;51.142;3.732;2023-04-24T00:02:22;0.22;;;0.13;;
59922;SDS011;45778;51.142;3.732;2023-04-24T00:04:48;0.00;;;0.00;;
59922;SDS011;45778;51.142;3.732;2023-04-24T00:07:14;0.00;;;0.00;;
59922;SDS011;45778;51.142;3.732;2023-04-24T00:09:41;0.10;;;0.10;;
59922;SDS011;45778;51.142;3.732;2023-04-24T00:12:08;0.00;;;0.00;;
59922;SDS011;45778;51.142;3.732;2023-04-24T00:14:34;0.03;;;0.03;;
59922;SDS011;45778;51.142;3.732;2023-04-24T00:17:00;0.00;;;0.00;;
59922;SDS011;45778;51.142;3.732;2023-04-24T00:19:27;0.10;;;0.10;;
59922;SDS011;45778;51.142;3.732;2023-04-24T00:21:53;0.03;;;0.03;;
59922;SDS011;45778;51.142;3.732;2023-04-24T00:24:20;0.00;;;0.00;;
59922;SDS011;45778;51.142;3.732;2023-04-24T00:26:46;0.05;;;0.05;;
59922;SDS011;45778;51.142;3.732;2023-04-24T00:29:11;0.00;;;0.00;;
59922;SDS011;45778;51.142;3.732;2023-04-24T00:31:37;0.20;;;0.20;;
59922;SDS011;45778;51.142;3.732;2023-04-24T00:34:03;0.00;;;0.00;;
59922;SDS011;45778;51.142;3.732;2023-04-24T00:36:29;0.73;;;0.47;;
59922;SDS011;45778;51.142;3.732;2023-04-24T00:38:56;0.13;;;0.13;;
59922;SDS011;45778;51.142;3.732;2023-04-24T00:41:22;0.00;;;0.00;;
59922;SDS011;45778;51.142;3.732;2023-04-24T00:43:49;0.00;;;0.00;;
59922;SDS011;45778;51.142;3.732;2023-04-24T00:46:15;0.90;;;0.90;;
59922;SDS011;45778;51.142;3.732;2023-04-24T00:48:41;0.00;;;0.00;;
59922;SDS011;45778;51.142;3.732;2023-04-24T00:51:08;0.88;;;0.85;;
59922;SDS011;45778;51.142;3.732;2023-04-24T00:53:34;0.08;;;0.08;;
59922;SDS011;45778;51.142;3.732;2023-04-24T00:56:00;0.55;;;0.47;;
59922;SDS011;45778;51.142;3.732;2023-04-24T00:58:26;0.00;;;0.00;;
59922;SDS011;45778;51.142;3.732;2023-04-24T01:00:53;0.45;;;0.45;;
59922;SDS011;45778;51.142;3.732;2023-04-24T01:03:20;0.45;;;0.30;;
59922;SDS011;45778;51.142;3.732;2023-04-24T01:05:49;0.00;;;0.00;;
59922;SDS011;45778;51.142;3.732;2023-04-24T01:08:15;0.00;;;0.00;;
59922;SDS011;45778;51.142;3.732;2023-04-24T01:10:41;0.10;;;0.10;;
59922;SDS011;45778;51.142;3.732;2023-04-24T01:13:08;0.85;;;0.85;;
59922;SDS011;45778;51.142;3.732;2023-04-24T01:15:34;0.00;;;0.00;;
59922;SDS011;45778;51.142;3.732;2023-04-24T01:18:00;0.38;;;0.38;;
59922;SDS011;45778;51.142;3.732;2023-04-24T01:20:26;0.10;;;0.10;;
59922;SDS011;45778;51.142;3.732;2023-04-24T01:22:54;2.17;;;0.52;;
59922;SDS011;45778;51.142;3.732;2023-04-24T01:25:21;0.30;;;0.30;;
59922;SDS011;45778;51.142;3.732;2023-04-24T01:27:47;0.35;;;0.28;;
59922;SDS011;45778;51.142;3.732;2023-04-24T01:30:13;0.25;;;0.25;;
59922;SDS011;45778;51.142;3.732;2023-04-24T01:32:39;1.00;;;0.65;;
59922;SDS011;45778;51.142;3.732;2023-04-24T01:35:09;0.40;;;0.40;;
59922;SDS011;45778;51.142;3.732;2023-04-24T01:37:35;0.43;;;0.43;;
59922;SDS011;45778;51.142;3.732;2023-04-24T01:40:02;0.10;;;0.10;;
59922;SDS011;45778;51.142;3.732;2023-04-24T01:42:29;0.22;;;0.22;;
59922;SDS011;45778;51.142;3.732;2023-04-24T01:44:56;0.85;;;0.85;;
59922;SDS011;45778;51.142;3.732;2023-04-24T01:47:22;0.25;;;0.25;;
59922;SDS011;45778;51.142;3.732;2023-04-24T01:49:49;0.00;;;0.00;;
59922;SDS011;45778;51.142;3.732;2023-04-24T01:52:15;0.10;;;0.10;;
59922;SDS011;45778;51.142;3.732;2023-04-24T01:54:42;0.20;;;0.20;;
59922;SDS011;45778;51.142;3.732;2023-04-24T01:57:08;0.10;;;0.10;;
59922;SDS011;45778;51.142;3.732;2023-04-24T01:59:34;0.20;;;0.20;;
59922;SDS011;45778;51.142;3.732;2023-04-24T02:02:01;0.88;;;0.80;;
59922;SDS011;45778;51.142;3.732;2023-04-24T02:04:27;1.02;;;0.63;;
59922;SDS011;45778;51.142;3.732;2023-04-24T02:06:53;0.30;;;0.30;;
59922;SDS011;45778;51.142;3.732;2023-04-24T02:09:18;0.40;;;0.40;;
59922;SDS011;45778;51.142;3.732;2023-04-24T02:11:44;1.80;;;1.38;;
59922;SDS011;45778;51.142;3.732;2023-04-24T02:14:10;0.40;;;0.40;;
59922;SDS011;45778;51.142;3.732;2023-04-24T02:16:36;0.40;;;0.40;;
59922;SDS011;45778;51.142;3.732;2023-04-24T02:19:02;0.13;;;0.13;;
59922;SDS011;45778;51.142;3.732;2023-04-24T02:21:27;0.17;;;0.17;;
59922;SDS011;45778;51.142;3.732;2023-04-24T02:23:53;0.20;;;0.20;;
59922;SDS011;45778;51.142;3.732;2023-04-24T02:26:19;1.20;;;1.15;;
59922;SDS011;45778;51.142;3.732;2023-04-24T02:28:45;0.28;;;0.28;;
59922;SDS011;45778;51.142;3.732;2023-04-24T02:31:11;0.08;;;0.08;;
59922;SDS011;45778;51.142;3.732;2023-04-24T02:33:36;0.30;;;0.30;;
59922;SDS011;45778;51.142;3.732;2023-04-24T02:36:02;0.43;;;0.43;;
59922;SDS011;45778;51.142;3.732;2023-04-24T02:38:28;0.10;;;0.10;;
59922;SDS011;45778;51.142;3.732;2023-04-24T02:40:54;0.32;;;0.32;;
59922;SDS011;45778;51.142;3.732;2023-04-24T02:43:20;0.00;;;0.00;;
59922;SDS011;45778;51.142;3.732;2023-04-24T02:45:46;0.90;;;0.90;;
59922;SDS011;45778;51.142;3.732;2023-04-24T02:48:11;0.03;;;0.03;;
59922;SDS011;45778;51.142;3.732;2023-04-24T02:50:37;0.40;;;0.20;;
59922;SDS011;45778;51.142;3.732;2023-04-24T02:53:03;0.15;;;0.15;;
59922;SDS011;45778;51.142;3.732;2023-04-24T02:55:28;0.05;;;0.05;;
59922;SDS011;45778;51.142;3.732;2023-04-24T02:57:55;0.00;;;0.00;;
59922;SDS011;45778;51.142;3.732;2023-04-24T03:00:21;0.00;;;0.00;;
59922;SDS011;45778;51.142;3.732;2023-04-24T03:02:46;0.63;;;0.63;;
59922;SDS011;45778;51.142;3.732;2023-04-24T03:05:12;0.00;;;0.00;;
59922;SDS011;45778;51.142;3.732;2023-04-24T03:07:38;2.75;;;1.13;;
59922;SDS011;45778;51.142;3.732;2023-04-24T03:10:04;0.00;;;0.00;;
59922;SDS011;45778;51.142;3.732;2023-04-24T03:12:31;0.00;;;0.00;;
59922;SDS011;45778;51.142;3.732;2023-04-24T03:14:56;0.20;;;0.20;;
59922;SDS011;45778;51.142;3.732;2023-04-24T03:17:22;0.93;;;0.28;;
59922;SDS011;45778;51.142;3.732;2023-04-24T03:19:48;0.00;;;0.00;;
59922;SDS011;45778;51.142;3.732;2023-04-24T03:22:13;0.00;;;0.00;;
59922;SDS011;45778;51.142;3.732;2023-04-24T03:24:39;0.00;;;0.00;;
59922;SDS011;45778;51.142;3.732;2023-04-24T03:27:05;0.00;;;0.00;;
59922;SDS011;45778;51.142;3.732;2023-04-24T03:29:31;0.00;;;0.00;;
59922;SDS011;45778;51.142;3.732;2023-04-24T03:31:56;0.00;;;0.00;;
59922;SDS011;45778;51.142;3.732;2023-04-24T03:34:22;2.10;;;0.65;;
59922;SDS011;45778;51.142;3.732;2023-04-24T03:36:47;0.00;;;0.00;;
59922;SDS011;45778;51.142;3.732;2023-04-24T03:39:13;0.00;;;0.00;;
59922;SDS011;45778;51.142;3.732;2023-04-24T03:41:39;0.10;;;0.10;;
59922;SDS011;45778;51.142;3.732;2023-04-24T03:44:05;0.00;;;0.00;;
59922;SDS011;45778;51.142;3.732;2023-04-24T03:46:30;0.85;;;0.40;;
59922;SDS011;45778;51.142;3.732;2023-04-24T03:48:56;0.05;;;0.05;;
59922;SDS011;45778;51.142;3.732;2023-04-24T03:51:22;0.70;;;0.70;;
59922;SDS011;45778;51.142;3.732;2023-04-24T03:53:48;0.17;;;0.17;;
59922;SDS011;45778;51.142;3.732;2023-04-24T03:56:14;0.00;;;0.00;;
59922;SDS011;45778;51.142;3.732;2023-04-24T03:58:39;0.10;;;0.10;;
59922;SDS011;45778;51.142;3.732;2023-04-24T04:01:05;0.65;;;0.65;;
59922;SDS011;45778;51.142;3.732;2023-04-24T04:03:31;9.27;;;0.98;;
59922;SDS011;45778;51.142;3.732;2023-04-24T04:05:57;0.08;;;0.08;;
59922;SDS011;45778;51.142;3.732;2023-04-24T04:08:22;0.63;;;0.63;;
59922;SDS011;45778;51.142;3.732;2023-04-24T04:10:48;0.35;;;0.35;;
59922;SDS011;45778;51.142;3.732;2023-04-24T04:13:14;0.25;;;0.25;;
59922;SDS011;45778;51.142;3.732;2023-04-24T04:15:39;0.00;;;0.00;;
59922;SDS011;45778;51.142;3.732;2023-04-24T04:18:05;0.68;;;0.68;;
59922;SDS011;45778;51.142;3.732;2023-04-24T04:20:31;0.00;;;0.00;;
59922;SDS011;45778;51.142;3.732;2023-04-24T04:22:57;0.65;;;0.65;;
59922;SDS011;45778;51.142;3.732;2023-04-24T04:25:22;0.00;;;0.00;;
59922;SDS011;45778;51.142;3.732;2023-04-24T04:27:48;0.00;;;0.00;;
59922;SDS011;45778;51.142;3.732;2023-04-24T04:30:14;0.10;;;0.10;;
59922;SDS011;45778;51.142;3.732;2023-04-24T04:32:40;1.50;;;0.52;;
59922;SDS011;45778;51.142;3.732;2023-04-24T04:35:06;0.03;;;0.03;;
59922;SDS011;45778;51.142;3.732;2023-04-24T04:37:32;2.33;;;1.75;;
59922;SDS011;45778;51.142;3.732;2023-04-24T04:39:58;2.00;;;1.52;;
59922;SDS011;45778;51.142;3.732;2023-04-24T04:42:25;0.00;;;0.00;;
59922;SDS011;45778;51.142;3.732;2023-04-24T04:44:52;0.10;;;0.10;;
59922;SDS011;45778;51.142;3.732;2023-04-24T04:47:18;0.52;;;0.52;;
59922;SDS011;45778;51.142;3.732;2023-04-24T04:49:46;0.90;;;0.90;;
59922;SDS011;45778;51.142;3.732;2023-04-24T04:52:13;0.00;;;0.00;;
59922;SDS011;45778;51.142;3.732;2023-04-24T04:54:38;2.47;;;1.33;;
59922;SDS011;45778;51.142;3.732;2023-04-24T04:57:04;0.00;;;0.00;;
59922;SDS011;45778;51.142;3.732;2023-04-24T04:59:31;0.25;;;0.25;;
59922;SDS011;45778;51.142;3.732;2023-04-24T05:01:56;0.30;;;0.22;;
59922;SDS011;45778;51.142;3.732;2023-04-24T05:04:22;0.00;;;0.00;;
59922;SDS011;45778;51.142;3.732;2023-04-24T05:06:48;0.65;;;0.35;;
59922;SDS011;45778;51.142;3.732;2023-04-24T05:09:15;0.25;;;0.25;;
59922;SDS011;45778;51.142;3.732;2023-04-24T05:11:41;4.78;;;2.75;;
59922;SDS011;45778;51.142;3.732;2023-04-24T05:14:07;0.30;;;0.30;;
59922;SDS011;45778;51.142;3.732;2023-04-24T05:16:33;0.20;;;0.20;;
59922;SDS011;45778;51.142;3.732;2023-04-24T05:18:58;0.40;;;0.40;;
59922;SDS011;45778;51.142;3.732;2023-04-24T05:21:24;0.10;;;0.10;;
59922;SDS011;45778;51.142;3.732;2023-04-24T05:23:50;17.30;;;2.10;;
59922;SDS011;45778;51.142;3.732;2023-04-24T05:26:16;0.47;;;0.47;;
59922;SDS011;45778;51.142;3.732;2023-04-24T05:28:42;0.60;;;0.60;;
59922;SDS011;45778;51.142;3.732;2023-04-24T05:31:08;1.08;;;0.38;;
59922;SDS011;45778;51.142;3.732;2023-04-24T05:33:34;0.75;;;0.75;;
59922;SDS011;45778;51.142;3.732;2023-04-24T05:35:59;0.00;;;0.00;;
59922;SDS011;45778;51.142;3.732;2023-04-24T05:38:25;0.47;;;0.47;;
59922;SDS011;45778;51.142;3.732;2023-04-24T05:40:51;0.20;;;0.20;;
59922;SDS011;45778;51.142;3.732;2023-04-24T05:43:16;0.68;;;0.68;;
59922;SDS011;45778;51.142;3.732;2023-04-24T05:45:42;0.00;;;0.00;;
59922;SDS011;45778;51.142;3.732;2023-04-24T05:48:07;0.20;;;0.20;;
59922;SDS011;45778;51.142;3.732;2023-04-24T05:50:33;1.50;;;0.65;;
59922;SDS011;45778;51.142;3.732;2023-04-24T05:52:59;0.75;;;0.65;;
59922;SDS011;45778;51.142;3.732;2023-04-24T05:55:26;0.28;;;0.28;;
59922;SDS011;45778;51.142;3.732;2023-04-24T05:57:52;9.43;;;0.95;;
59922;SDS011;45778;51.142;3.732;2023-04-24T06:00:18;0.10;;;0.10;;
59922;SDS011;45778;51.142;3.732;2023-04-24T06:02:45;2.50;;;1.88;;
59922;SDS011;45778;51.142;3.732;2023-04-24T06:05:11;0.40;;;0.40;;
59922;SDS011;45778;51.142;3.732;2023-04-24T06:07:37;0.82;;;0.73;;
59922;SDS011;45778;51.142;3.732;2023-04-24T06:10:02;0.30;;;0.30;;
59922;SDS011;45778;51.142;3.732;2023-04-24T06:12:29;0.00;;;0.00;;
59922;SDS011;45778;51.142;3.732;2023-04-24T06:14:55;0.73;;;0.73;;
59922;SDS011;45778;51.142;3.732;2023-04-24T06:17:21;0.00;;;0.00;;
59922;SDS011;45778;51.142;3.732;2023-04-24T06:19:46;0.68;;;0.68;;
59922;SDS011;45778;51.142;3.732;2023-04-24T06:22:12;0.65;;;0.65;;
59922;SDS011;45778;51.142;3.732;2023-04-24T06:24:39;0.30;;;0.30;;
59922;SDS011;45778;51.142;3.732;2023-04-24T06:27:05;0.00;;;0.00;;
59922;SDS011;45778;51.142;3.732;2023-04-24T06:29:30;0.03;;;0.03;;
59922;SDS011;45778;51.142;3.732;2023-04-24T06:31:56;1.67;;;1.60;;
59922;SDS011;45778;51.142;3.732;2023-04-24T06:34:22;0.15;;;0.15;;
59922;SDS011;45778;51.142;3.732;2023-04-24T06:36:48;10.30;;;2.33;;
59922;SDS011;45778;51.142;3.732;2023-04-24T06:39:13;6.43;;;1.70;;
59922;SDS011;45778;51.142;3.732;2023-04-24T06:41:39;0.00;;;0.00;;
59922;SDS011;45778;51.142;3.732;2023-04-24T06:44:05;0.00;;;0.00;;
59922;SDS011;45778;51.142;3.732;2023-04-24T06:46:31;0.30;;;0.30;;
59922;SDS011;45778;51.142;3.732;2023-04-24T06:48:56;1.95;;;1.27;;
59922;SDS011;45778;51.142;3.732;2023-04-24T06:51:23;0.00;;;0.00;;
59922;SDS011;45778;51.142;3.732;2023-04-24T06:53:49;0.00;;;0.00;;
59922;SDS011;45778;51.142;3.732;2023-04-24T06:56:16;0.00;;;0.00;;
59922;SDS011;45778;51.142;3.732;2023-04-24T06:58:42;0.08;;;0.08;;
59922;SDS011;45778;51.142;3.732;2023-04-24T07:01:07;3.88;;;0.75;;
59922;SDS011;45778;51.142;3.732;2023-04-24T07:03:33;0.00;;;0.00;;
59922;SDS011;45778;51.142;3.732;2023-04-24T07:05:59;0.10;;;0.10;;
59922;SDS011;45778;51.142;3.732;2023-04-24T07:08:25;0.00;;;0.00;;
59922;SDS011;45778;51.142;3.732;2023-04-24T07:10:51;0.00;;;0.00;;
59922;SDS011;45778;51.142;3.732;2023-04-24T07:13:16;0.08;;;0.08;;
59922;SDS011;45778;51.142;3.732;2023-04-24T07:15:42;0.00;;;0.00;;
59922;SDS011;45778;51.142;3.732;2023-04-24T07:18:08;0.00;;;0.00;;
59922;SDS011;45778;51.142;3.732;2023-04-24T07:20:34;0.00;;;0.00;;
59922;SDS011;45778;51.142;3.732;2023-04-24T07:23:00;0.10;;;0.10;;
59922;SDS011;45778;51.142;3.732;2023-04-24T07:25:26;0.00;;;0.00;;
59922;SDS011;45778;51.142;3.732;2023-04-24T07:27:51;0.00;;;0.00;;
59922;SDS011;45778;51.142;3.732;2023-04-24T07:30:18;0.15;;;0.03;;
59922;SDS011;45778;51.142;3.732;2023-04-24T07:32:43;0.08;;;0.08;;
59922;SDS011;45778;51.142;3.732;2023-04-24T07:35:09;0.00;;;0.00;;
59922;SDS011;45778;51.142;3.732;2023-04-24T07:37:35;0.00;;;0.00;;
59922;SDS011;45778;51.142;3.732;2023-04-24T07:40:01;0.00;;;0.00;;
59922;SDS011;45778;51.142;3.732;2023-04-24T07:42:27;0.00;;;0.00;;
59922;SDS011;45778;51.142;3.732;2023-04-24T07:44:55;0.32;;;0.32;;
59922;SDS011;45778;51.142;3.732;2023-04-24T07:47:21;0.05;;;0.05;;
59922;SDS011;45778;51.142;3.732;2023-04-24T07:49:46;0.00;;;0.00;;
59922;SDS011;45778;51.142;3.732;2023-04-24T07:52:12;0.00;;;0.00;;
59922;SDS011;45778;51.142;3.732;2023-04-24T07:54:38;0.00;;;0.00;;
59922;SDS011;45778;51.142;3.732;2023-04-24T07:57:03;0.00;;;0.00;;
59922;SDS011;45778;51.142;3.732;2023-04-24T07:59:31;1.67;;;1.45;;
59922;SDS011;45778;51.142;3.732;2023-04-24T08:01:57;0.08;;;0.08;;
59922;SDS011;45778;51.142;3.732;2023-04-24T08:04:23;0.43;;;0.43;;
59922;SDS011;45778;51.142;3.732;2023-04-24T08:06:48;0.00;;;0.00;;
59922;SDS011;45778;51.142;3.732;2023-04-24T08:09:14;0.00;;;0.00;;
59922;SDS011;45778;51.142;3.732;2023-04-24T08:11:40;0.82;;;0.10;;
59922;SDS011;45778;51.142;3.732;2023-04-24T08:14:05;0.30;;;0.30;;
59922;SDS011;45778;51.142;3.732;2023-04-24T08:16:32;0.00;;;0.00;;
59922;SDS011;45778;51.142;3.732;2023-04-24T08:18:58;1.15;;;0.38;;
59922;SDS011;45778;51.142;3.732;2023-04-24T08:21:23;0.38;;;0.38;;
59922;SDS011;45778;51.142;3.732;2023-04-24T08:23:51;0.00;;;0.00;;
59922;SDS011;45778;51.142;3.732;2023-04-24T08:26:16;0.15;;;0.08;;
59922;SDS011;45778;51.142;3.732;2023-04-24T08:28:42;0.00;;;0.00;;
59922;SDS011;45778;51.142;3.732;2023-04-24T08:31:08;0.00;;;0.00;;
59922;SDS011;45778;51.142;3.732;2023-04-24T08:33:33;0.00;;;0.00;;
59922;SDS011;45778;51.142;3.732;2023-04-24T08:36:05;0.00;;;0.00;;
59922;SDS011;45778;51.142;3.732;2023-04-24T08:38:31;0.35;;;0.35;;
59922;SDS011;45778;51.142;3.732;2023-04-24T08:40:58;0.00;;;0.00;;
59922;SDS011;45778;51.142;3.732;2023-04-24T08:43:25;0.00;;;0.00;;
59922;SDS011;45778;51.142;3.732;2023-04-24T08:45:52;9.60;;;3.33;;
59922;SDS011;45778;51.142;3.732;2023-04-24T08:48:18;9.00;;;2.63;;
59922;SDS011;45778;51.142;3.732;2023-04-24T08:50:43;8.00;;;2.53;;
59922;SDS011;45778;51.142;3.732;2023-04-24T08:53:09;8.48;;;2.47;;
59922;SDS011;45778;51.142;3.732;2023-04-24T08:55:36;6.47;;;2.88;;
59922;SDS011;45778;51.142;3.732;2023-04-24T08:58:02;5.38;;;2.60;;
59922;SDS011;45778;51.142;3.732;2023-04-24T09:00:29;7.78;;;3.03;;
59922;SDS011;45778;51.142;3.732;2023-04-24T09:02:55;8.23;;;2.65;;
59922;SDS011;45778;51.142;3.732;2023-04-24T09:05:21;10.18;;;3.60;;
59922;SDS011;45778;51.142;3.732;2023-04-24T09:07:55;11.25;;;2.60;;
59922;SDS011;45778;51.142;3.732;2023-04-24T09:10:22;6.38;;;2.58;;
59922;SDS011;45778;51.142;3.732;2023-04-24T09:12:52;10.43;;;3.45;;
59922;SDS011;45778;51.142;3.732;2023-04-24T09:15:19;12.55;;;3.20;;
59922;SDS011;45778;51.142;3.732;2023-04-24T09:17:47;8.98;;;3.17;;
59922;SDS011;45778;51.142;3.732;2023-04-24T09:20:13;7.85;;;2.28;;
59922;SDS011;45778;51.142;3.732;2023-04-24T09:22:39;7.13;;;2.50;;
59922;SDS011;45778;51.142;3.732;2023-04-24T09:25:05;11.13;;;2.80;;
59922;SDS011;45778;51.142;3.732;2023-04-24T09:27:33;8.70;;;3.78;;
59922;SDS011;45778;51.142;3.732;2023-04-24T09:29:59;9.68;;;2.85;;
59922;SDS011;45778;51.142;3.732;2023-04-24T09:32:25;9.30;;;3.35;;
59922;SDS011;45778;51.142;3.732;2023-04-24T09:35:08;5.25;;;2.53;;
59922;SDS011;45778;51.142;3.732;2023-04-24T09:37:46;8.88;;;3.00;;
59922;SDS011;45778;51.142;3.732;2023-04-24T09:40:18;7.85;;;2.95;;
59922;SDS011;45778;51.142;3.732;2023-04-24T09:42:52;7.43;;;2.65;;
59922;SDS011;45778;51.142;3.732;2023-04-24T09:45:27;12.60;;;4.30;;
59922;SDS011;45778;51.142;3.732;2023-04-24T09:47:53;8.32;;;3.10;;
59922;SDS011;45778;51.142;3.732;2023-04-24T09:50:20;6.07;;;2.63;;
59922;SDS011;45778;51.142;3.732;2023-04-24T09:52:55;7.95;;;2.92;;
59922;SDS011;45778;51.142;3.732;2023-04-24T09:55:22;6.45;;;1.80;;
59922;SDS011;45778;51.142;3.732;2023-04-24T09:57:54;8.23;;;2.80;;
59922;SDS011;45778;51.142;3.732;2023-04-24T10:03:06;4.70;;;2.47;;
59922;SDS011;45778;51.142;3.732;2023-04-24T10:05:33;10.65;;;2.65;;
59922;SDS011;45778;51.142;3.732;2023-04-24T10:08:12;6.00;;;2.40;;
59922;SDS011;45778;51.142;3.732;2023-04-24T10:10:42;7.97;;;3.10;;
59922;SDS011;45778;51.142;3.732;2023-04-24T10:13:10;10.30;;;2.85;;
59922;SDS011;45778;51.142;3.732;2023-04-24T10:15:37;7.78;;;1.92;;
59922;SDS011;45778;51.142;3.732;2023-04-24T10:18:05;6.53;;;3.90;;
59922;SDS011;45778;51.142;3.732;2023-04-24T10:20:32;5.88;;;2.25;;
59922;SDS011;45778;51.142;3.732;2023-04-24T10:22:59;6.65;;;2.03;;
59922;SDS011;45778;51.142;3.732;2023-04-24T10:25:29;9.13;;;2.38;;
59922;SDS011;45778;51.142;3.732;2023-04-24T10:27:57;6.97;;;2.83;;
59922;SDS011;45778;51.142;3.732;2023-04-24T10:30:24;8.60;;;2.95;;
59922;SDS011;45778;51.142;3.732;2023-04-24T10:32:52;5.70;;;2.50;;
59922;SDS011;45778;51.142;3.732;2023-04-24T10:35:18;11.00;;;2.75;;
59922;SDS011;45778;51.142;3.732;2023-04-24T10:37:51;7.28;;;2.50;;
59922;SDS011;45778;51.142;3.732;2023-04-24T10:40:25;7.40;;;2.25;;
59922;SDS011;45778;51.142;3.732;2023-04-24T10:42:54;6.18;;;2.90;;
59922;SDS011;45778;51.142;3.732;2023-04-24T10:45:22;6.10;;;2.95;;
59922;SDS011;45778;51.142;3.732;2023-04-24T10:50:42;4.78;;;2.00;;
59922;SDS011;45778;51.142;3.732;2023-04-24T10:53:12;6.38;;;1.88;;
59922;SDS011;45778;51.142;3.732;2023-04-24T10:55:41;7.35;;;2.28;;
59922;SDS011;45778;51.142;3.732;2023-04-24T10:58:08;9.68;;;2.47;;
59922;SDS011;45778;51.142;3.732;2023-04-24T11:00:39;7.18;;;2.00;;
59922;SDS011;45778;51.142;3.732;2023-04-24T11:03:06;5.07;;;1.77;;
59922;SDS011;45778;51.142;3.732;2023-04-24T11:05:49;3.83;;;1.70;;
59922;SDS011;45778;51.142;3.732;2023-04-24T11:08:25;5.43;;;2.03;;
59922;SDS011;45778;51.142;3.732;2023-04-24T11:10:56;5.85;;;2.05;;
59922;SDS011;45778;51.142;3.732;2023-04-24T11:13:27;3.53;;;1.92;;
59922;SDS011;45778;51.142;3.732;2023-04-24T11:16:14;3.70;;;1.90;;
59922;SDS011;45778;51.142;3.732;2023-04-24T11:18:50;4.70;;;1.85;;
59922;SDS011;45778;51.142;3.732;2023-04-24T11:21:19;5.60;;;1.73;;
59922;SDS011;45778;51.142;3.732;2023-04-24T11:23:45;5.15;;;1.50;;
59922;SDS011;45778;51.142;3.732;2023-04-24T11:26:12;7.45;;;1.48;;
59922;SDS011;45778;51.142;3.732;2023-04-24T11:28:49;8.98;;;1.90;;
59922;SDS011;45778;51.142;3.732;2023-04-24T11:31:37;4.70;;;1.33;;
59922;SDS011;45778;51.142;3.732;2023-04-24T11:34:06;3.88;;;1.20;;
59922;SDS011;45778;51.142;3.732;2023-04-24T11:36:37;5.03;;;1.75;;
59922;SDS011;45778;51.142;3.732;2023-04-24T11:39:03;5.65;;;1.55;;
59922;SDS011;45778;51.142;3.732;2023-04-24T11:41:29;4.50;;;1.50;;
59922;SDS011;45778;51.142;3.732;2023-04-24T11:43:55;4.82;;;1.23;;
59922;SDS011;45778;51.142;3.732;2023-04-24T11:46:22;4.68;;;1.13;;
59922;SDS011;45778;51.142;3.732;2023-04-24T11:48:48;7.10;;;1.23;;
59922;SDS011;45778;51.142;3.732;2023-04-24T11:51:13;3.47;;;1.40;;
59922;SDS011;45778;51.142;3.732;2023-04-24T11:53:40;5.55;;;1.13;;
59922;SDS011;45778;51.142;3.732;2023-04-24T11:56:05;3.15;;;1.10;;
59922;SDS011;45778;51.142;3.732;2023-04-24T11:58:38;5.22;;;1.20;;
59922;SDS011;45778;51.142;3.732;2023-04-24T12:01:04;2.13;;;1.10;;
59922;SDS011;45778;51.142;3.732;2023-04-24T12:03:30;3.13;;;0.90;;
59922;SDS011;45778;51.142;3.732;2023-04-24T12:06:06;3.10;;;1.05;;
59922;SDS011;45778;51.142;3.732;2023-04-24T12:08:33;3.13;;;1.00;;
59922;SDS011;45778;51.142;3.732;2023-04-24T12:11:01;2.97;;;1.33;;
59922;SDS011;45778;51.142;3.732;2023-04-24T12:13:27;2.20;;;0.80;;
59922;SDS011;45778;51.142;3.732;2023-04-24T12:15:53;1.48;;;0.70;;
59922;SDS011;45778;51.142;3.732;2023-04-24T12:18:22;1.38;;;0.63;;
59922;SDS011;45778;51.142;3.732;2023-04-24T12:20:48;1.63;;;0.75;;
59922;SDS011;45778;51.142;3.732;2023-04-24T12:23:14;3.22;;;0.68;;
59922;SDS011;45778;51.142;3.732;2023-04-24T12:25:40;3.40;;;0.80;;
59922;SDS011;45778;51.142;3.732;2023-04-24T12:30:39;5.88;;;0.77;;
59922;SDS011;45778;51.142;3.732;2023-04-24T12:33:17;2.00;;;0.80;;
59922;SDS011;45778;51.142;3.732;2023-04-24T12:35:44;3.28;;;0.90;;
59922;SDS011;45778;51.142;3.732;2023-04-24T12:38:11;2.88;;;0.75;;
59922;SDS011;45778;51.142;3.732;2023-04-24T12:40:38;6.53;;;1.05;;
59922;SDS011;45778;51.142;3.732;2023-04-24T12:43:19;6.03;;;1.70;;
59922;SDS011;45778;51.142;3.732;2023-04-24T12:45:47;3.78;;;0.88;;
59922;SDS011;45778;51.142;3.732;2023-04-24T12:48:13;5.15;;;0.90;;
59922;SDS011;45778;51.142;3.732;2023-04-24T12:50:39;4.35;;;1.00;;
59922;SDS011;45778;51.142;3.732;2023-04-24T12:53:05;3.60;;;0.93;;
59922;SDS011;45778;51.142;3.732;2023-04-24T12:55:32;3.00;;;0.88;;
59922;SDS011;45778;51.142;3.732;2023-04-24T12:57:58;1.80;;;0.70;;
59922;SDS011;45778;51.142;3.732;2023-04-24T13:00:24;1.40;;;0.50;;
59922;SDS011;45778;51.142;3.732;2023-04-24T13:02:50;1.05;;;0.60;;
59922;SDS011;45778;51.142;3.732;2023-04-24T13:05:16;3.42;;;0.70;;
59922;SDS011;45778;51.142;3.732;2023-04-24T13:07:42;3.35;;;0.65;;
59922;SDS011;45778;51.142;3.732;2023-04-24T13:10:07;1.85;;;0.60;;
59922;SDS011;45778;51.142;3.732;2023-04-24T13:12:34;3.88;;;0.85;;
59922;SDS011;45778;51.142;3.732;2023-04-24T13:15:00;3.25;;;0.70;;
59922;SDS011;45778;51.142;3.732;2023-04-24T13:17:25;2.30;;;0.63;;
59922;SDS011;45778;51.142;3.732;2023-04-24T13:19:51;0.93;;;0.40;;
59922;SDS011;45778;51.142;3.732;2023-04-24T13:22:19;1.55;;;0.60;;
59922;SDS011;45778;51.142;3.732;2023-04-24T13:24:45;1.45;;;0.40;;
59922;SDS011;45778;51.142;3.732;2023-04-24T13:27:13;2.28;;;0.70;;
59922;SDS011;45778;51.142;3.732;2023-04-24T13:29:40;3.28;;;0.70;;
59922;SDS011;45778;51.142;3.732;2023-04-24T13:32:05;2.30;;;0.50;;
59922;SDS011;45778;51.142;3.732;2023-04-24T13:34:31;1.98;;;0.47;;
59922;SDS011;45778;51.142;3.732;2023-04-24T13:36:57;1.98;;;0.70;;
59922;SDS011;45778;51.142;3.732;2023-04-24T13:39:24;1.50;;;0.57;;
59922;SDS011;45778;51.142;3.732;2023-04-24T13:41:50;2.15;;;0.40;;
59922;SDS011;45778;51.142;3.732;2023-04-24T13:44:17;2.95;;;0.73;;
59922;SDS011;45778;51.142;3.732;2023-04-24T13:46:44;2.47;;;0.70;;
59922;SDS011;45778;51.142;3.732;2023-04-24T13:49:11;2.60;;;0.47;;
59922;SDS011;45778;51.142;3.732;2023-04-24T13:51:38;0.45;;;0.35;;
59922;SDS011;45778;51.142;3.732;2023-04-24T13:54:05;1.65;;;0.40;;
59922;SDS011;45778;51.142;3.732;2023-04-24T13:56:30;2.88;;;0.60;;
59922;SDS011;45778;51.142;3.732;2023-04-24T13:58:56;2.88;;;1.20;;
59922;SDS011;45778;51.142;3.732;2023-04-24T14:01:22;1.85;;;0.63;;
59922;SDS011;45778;51.142;3.732;2023-04-24T14:03:54;1.33;;;0.52;;
59922;SDS011;45778;51.142;3.732;2023-04-24T14:06:20;1.60;;;1.13;;
59922;SDS011;45778;51.142;3.732;2023-04-24T14:08:47;1.50;;;0.93;;
59922;SDS011;45778;51.142;3.732;2023-04-24T14:11:14;1.65;;;0.50;;
59922;SDS011;45778;51.142;3.732;2023-04-24T14:13:43;1.77;;;0.93;;
59922;SDS011;45778;51.142;3.732;2023-04-24T14:16:10;4.63;;;0.70;;
59922;SDS011;45778;51.142;3.732;2023-04-24T14:18:36;1.23;;;0.75;;
59922;SDS011;45778;51.142;3.732;2023-04-24T14:21:02;4.10;;;0.80;;
59922;SDS011;45778;51.142;3.732;2023-04-24T14:23:29;1.55;;;0.80;;
59922;SDS011;45778;51.142;3.732;2023-04-24T14:25:55;3.72;;;1.02;;
59922;SDS011;45778;51.142;3.732;2023-04-24T14:28:21;2.20;;;0.70;;
59922;SDS011;45778;51.142;3.732;2023-04-24T14:30:47;3.13;;;0.75;;
59922;SDS011;45778;51.142;3.732;2023-04-24T14:33:13;5.60;;;1.50;;
59922;SDS011;45778;51.142;3.732;2023-04-24T14:35:40;3.65;;;1.15;;
59922;SDS011;45778;51.142;3.732;2023-04-24T14:38:07;2.97;;;1.30;;
59922;SDS011;45778;51.142;3.732;2023-04-24T14:40:33;3.90;;;1.65;;
59922;SDS011;45778;51.142;3.732;2023-04-24T14:42:58;3.72;;;0.90;;
59922;SDS011;45778;51.142;3.732;2023-04-24T14:45:25;3.17;;;0.77;;
59922;SDS011;45778;51.142;3.732;2023-04-24T14:47:51;4.60;;;1.58;;
59922;SDS011;45778;51.142;3.732;2023-04-24T14:50:18;4.30;;;1.02;;
59922;SDS011;45778;51.142;3.732;2023-04-24T14:52:44;3.50;;;1.38;;
59922;SDS011;45778;51.142;3.732;2023-04-24T14:55:09;3.08;;;1.05;;